カラチ の空港の天気 - METARとTAF

ジンナー国際空港(カラチ) ( OPKC / KHI ) - パキスタン Karachi
飛行場実況気象(Metar)
観測時間07/17 13:25 PKT (07/17 08:25 UTC)
風向・風速西南西 5m/s
視程6000m
天気現象
少しの雲 雲底高度 610m
全天の8割程度の雲 雲底高度 3050m
気温35℃
湿度50%
気圧997hPa
METAROPKC 170825Z 24010KT 6000 FEW020 BKN100 35/23 Q0997 NOSIG
過去の天気等 Google飛行場航空写真 Wunderground天気予報

過去48時間のMETAR

飛行場予報(TAF)
発表時間: 7/17 08:30 PKT (7/17 03:30 UTC)
予報対象時間: 17日11時 PKT ~ 18日17時 PKT
風向・風速南西 3m/s 瞬間風速 8m/s
視程6000m
全天の4割程度の雲 雲底高度 610m
全天の8割程度の雲 雲底高度 3050m
17日23時 PKT ~ 18日1時 PKT に徐々に
風向・風速西南西 4m/s
視程4000m
天気現象煙霧
全天の4割程度の雲 雲底高度 610m
全天の8割程度の雲 雲底高度 3050m
18日5時 PKT ~ 18日9時 PKT に一時的に
風向・風速南西 4m/s
視程4000m
天気現象煙霧
全天の4割程度の雲 雲底高度 610m
全天の8割程度の雲 雲底高度 910m
18日11時 PKT から
風向・風速西南西 4m/s 瞬間風速 9m/s
視程6000m
全天の4割程度の雲 雲底高度 610m
全天の8割程度の雲 雲底高度 3050m
TAF OPKC 170330Z 1706/1812 23005G15KT 6000 SCT020 BKN100
BECMG 1718/1720 25008KT 4000 HZ SCT020 BKN100
TEMPO 1800/1804 23008KT 4000 HZ SCT020 BKN030
FM180600 24008G18KT 6000 SCT020 BKN100